sensor_id;sensor_type;location;lat;lon;timestamp;pressure;altitude;pressure_sealevel;temperature;humidity
17525;BME280;40431;52.198;9.902;2023-09-08T00:02:08;101123.66;;;19.02;97.47
17525;BME280;40431;52.198;9.902;2023-09-08T00:04:35;101118.69;;;18.96;98.19
17525;BME280;40431;52.198;9.902;2023-09-08T00:07:01;101126.06;;;18.95;98.59
17525;BME280;40431;52.198;9.902;2023-09-08T00:09:29;101125.06;;;18.96;98.78
17525;BME280;40431;52.198;9.902;2023-09-08T00:11:57;101123.47;;;18.94;98.24
17525;BME280;40431;52.198;9.902;2023-09-08T00:14:23;101120.72;;;18.94;98.54
17525;BME280;40431;52.198;9.902;2023-09-08T00:16:51;101121.72;;;18.93;98.52
17525;BME280;40431;52.198;9.902;2023-09-08T00:19:19;101123.00;;;18.89;97.98
17525;BME280;40431;52.198;9.902;2023-09-08T00:21:45;101122.22;;;18.86;97.78
17525;BME280;40431;52.198;9.902;2023-09-08T00:24:12;101120.63;;;18.84;98.66
17525;BME280;40431;52.198;9.902;2023-09-08T00:26:38;101119.88;;;18.82;99.35
17525;BME280;40431;52.198;9.902;2023-09-08T00:29:06;101118.00;;;18.82;99.24
17525;BME280;40431;52.198;9.902;2023-09-08T00:31:33;101120.16;;;18.79;99.61
17525;BME280;40431;52.198;9.902;2023-09-08T00:33:59;101114.19;;;18.74;100.00
17525;BME280;40431;52.198;9.902;2023-09-08T00:36:26;101113.31;;;18.73;100.00
17525;BME280;40431;52.198;9.902;2023-09-08T00:38:52;101123.56;;;18.71;99.79
17525;BME280;40431;52.198;9.902;2023-09-08T00:41:19;101114.38;;;18.61;99.09
17525;BME280;40431;52.198;9.902;2023-09-08T00:43:45;101120.88;;;18.60;99.44
17525;BME280;40431;52.198;9.902;2023-09-08T00:46:13;101116.91;;;18.52;99.70
17525;BME280;40431;52.198;9.902;2023-09-08T00:48:39;101113.06;;;18.44;100.00
17525;BME280;40431;52.198;9.902;2023-09-08T00:51:06;101108.47;;;18.44;100.00
17525;BME280;40431;52.198;9.902;2023-09-08T00:53:33;101115.69;;;18.45;100.00
17525;BME280;40431;52.198;9.902;2023-09-08T00:55:59;101113.97;;;18.44;100.00
17525;BME280;40431;52.198;9.902;2023-09-08T00:58:26;101113.22;;;18.42;100.00
17525;BME280;40431;52.198;9.902;2023-09-08T01:00:53;101116.94;;;18.41;100.00
17525;BME280;40431;52.198;9.902;2023-09-08T01:03:20;101123.47;;;18.40;100.00
17525;BME280;40431;52.198;9.902;2023-09-08T01:05:47;101108.97;;;18.38;100.00
17525;BME280;40431;52.198;9.902;2023-09-08T01:08:15;101117.63;;;18.33;100.00
17525;BME280;40431;52.198;9.902;2023-09-08T01:10:42;101114.00;;;18.33;100.00
17525;BME280;40431;52.198;9.902;2023-09-08T01:13:09;101107.28;;;18.26;100.00
17525;BME280;40431;52.198;9.902;2023-09-08T01:15:35;101106.81;;;18.21;100.00
17525;BME280;40431;52.198;9.902;2023-09-08T01:18:02;101115.19;;;18.19;100.00
17525;BME280;40431;52.198;9.902;2023-09-08T01:20:35;101116.81;;;18.10;100.00
17525;BME280;40431;52.198;9.902;2023-09-08T01:23:18;101108.56;;;18.10;100.00
17525;BME280;40431;52.198;9.902;2023-09-08T01:25:51;101098.88;;;18.06;100.00
17525;BME280;40431;52.198;9.902;2023-09-08T01:28:20;101107.47;;;18.01;100.00
17525;BME280;40431;52.198;9.902;2023-09-08T01:30:49;101106.00;;;17.97;100.00
17525;BME280;40431;52.198;9.902;2023-09-08T01:33:16;101100.63;;;17.96;100.00
17525;BME280;40431;52.198;9.902;2023-09-08T01:35:43;101105.59;;;17.91;100.00
17525;BME280;40431;52.198;9.902;2023-09-08T01:38:09;101106.72;;;17.88;100.00
17525;BME280;40431;52.198;9.902;2023-09-08T01:40:36;101099.63;;;17.85;100.00
17525;BME280;40431;52.198;9.902;2023-09-08T01:43:04;101106.38;;;17.81;100.00
17525;BME280;40431;52.198;9.902;2023-09-08T01:45:31;101103.25;;;17.75;100.00
17525;BME280;40431;52.198;9.902;2023-09-08T01:47:57;101103.91;;;17.67;100.00
17525;BME280;40431;52.198;9.902;2023-09-08T01:50:24;101105.03;;;17.64;100.00
17525;BME280;40431;52.198;9.902;2023-09-08T01:52:50;101104.53;;;17.59;100.00
17525;BME280;40431;52.198;9.902;2023-09-08T01:55:17;101104.41;;;17.61;100.00
17525;BME280;40431;52.198;9.902;2023-09-08T01:57:43;101099.19;;;17.58;100.00
17525;BME280;40431;52.198;9.902;2023-09-08T02:00:13;101090.97;;;17.58;100.00
17525;BME280;40431;52.198;9.902;2023-09-08T02:02:40;101096.53;;;17.56;100.00
17525;BME280;40431;52.198;9.902;2023-09-08T02:05:07;101095.94;;;17.52;100.00
17525;BME280;40431;52.198;9.902;2023-09-08T02:07:33;101097.94;;;17.50;100.00
17525;BME280;40431;52.198;9.902;2023-09-08T02:10:00;101094.47;;;17.48;100.00
17525;BME280;40431;52.198;9.902;2023-09-08T02:12:27;101096.44;;;17.46;100.00
17525;BME280;40431;52.198;9.902;2023-09-08T02:14:53;101094.94;;;17.42;100.00
17525;BME280;40431;52.198;9.902;2023-09-08T02:17:21;101096.94;;;17.40;100.00
17525;BME280;40431;52.198;9.902;2023-09-08T02:19:47;101098.69;;;17.30;100.00
17525;BME280;40431;52.198;9.902;2023-09-08T02:22:14;101096.81;;;17.30;100.00
17525;BME280;40431;52.198;9.902;2023-09-08T02:24:40;101097.94;;;17.28;100.00
17525;BME280;40431;52.198;9.902;2023-09-08T02:27:07;101090.84;;;17.25;100.00
17525;BME280;40431;52.198;9.902;2023-09-08T02:29:33;101092.22;;;17.19;100.00
17525;BME280;40431;52.198;9.902;2023-09-08T02:32:00;101093.97;;;17.21;100.00
17525;BME280;40431;52.198;9.902;2023-09-08T02:34:28;101089.72;;;17.16;100.00
17525;BME280;40431;52.198;9.902;2023-09-08T02:36:54;101098.69;;;17.18;100.00
17525;BME280;40431;52.198;9.902;2023-09-08T02:39:21;101091.69;;;17.14;100.00
17525;BME280;40431;52.198;9.902;2023-09-08T02:41:48;101099.53;;;17.19;100.00
17525;BME280;40431;52.198;9.902;2023-09-08T02:44:14;101091.44;;;17.17;100.00
17525;BME280;40431;52.198;9.902;2023-09-08T02:46:41;101089.94;;;17.13;100.00
17525;BME280;40431;52.198;9.902;2023-09-08T02:49:07;101098.56;;;17.09;100.00
17525;BME280;40431;52.198;9.902;2023-09-08T02:51:35;101090.69;;;17.04;100.00
17525;BME280;40431;52.198;9.902;2023-09-08T02:54:01;101088.19;;;17.01;100.00
17525;BME280;40431;52.198;9.902;2023-09-08T02:56:28;101099.91;;;17.03;100.00
17525;BME280;40431;52.198;9.902;2023-09-08T02:58:54;101096.16;;;17.04;100.00
17525;BME280;40431;52.198;9.902;2023-09-08T03:01:21;101095.31;;;17.03;100.00
17525;BME280;40431;52.198;9.902;2023-09-08T03:03:48;101099.03;;;17.02;100.00
17525;BME280;40431;52.198;9.902;2023-09-08T03:06:19;101094.66;;;17.00;100.00
17525;BME280;40431;52.198;9.902;2023-09-08T03:08:47;101097.66;;;16.97;100.00
17525;BME280;40431;52.198;9.902;2023-09-08T03:11:13;101096.03;;;16.94;100.00
17525;BME280;40431;52.198;9.902;2023-09-08T03:13:40;101088.81;;;16.93;100.00
17525;BME280;40431;52.198;9.902;2023-09-08T03:16:07;101089.78;;;16.92;100.00
17525;BME280;40431;52.198;9.902;2023-09-08T03:18:34;101091.00;;;16.88;100.00
17525;BME280;40431;52.198;9.902;2023-09-08T03:21:02;101093.75;;;16.88;100.00
17525;BME280;40431;52.198;9.902;2023-09-08T03:23:34;101088.41;;;16.86;100.00
17525;BME280;40431;52.198;9.902;2023-09-08T03:26:02;101087.63;;;16.84;100.00
17525;BME280;40431;52.198;9.902;2023-09-08T03:28:28;101082.78;;;16.77;100.00
17525;BME280;40431;52.198;9.902;2023-09-08T03:30:54;101077.53;;;16.74;100.00
17525;BME280;40431;52.198;9.902;2023-09-08T03:33:21;101082.41;;;16.70;100.00
17525;BME280;40431;52.198;9.902;2023-09-08T03:35:47;101080.25;;;16.62;100.00
17525;BME280;40431;52.198;9.902;2023-09-08T03:38:14;101086.59;;;16.63;100.00
17525;BME280;40431;52.198;9.902;2023-09-08T03:40:40;101083.47;;;16.56;100.00
17525;BME280;40431;52.198;9.902;2023-09-08T03:43:09;101083.59;;;16.55;100.00
17525;BME280;40431;52.198;9.902;2023-09-08T03:45:35;101082.72;;;16.54;100.00
17525;BME280;40431;52.198;9.902;2023-09-08T03:48:02;101082.09;;;16.50;100.00
17525;BME280;40431;52.198;9.902;2023-09-08T03:50:29;101087.69;;;16.49;100.00
17525;BME280;40431;52.198;9.902;2023-09-08T03:52:56;101086.06;;;16.46;100.00
17525;BME280;40431;52.198;9.902;2023-09-08T03:55:22;101092.50;;;16.45;100.00
17525;BME280;40431;52.198;9.902;2023-09-08T03:57:49;101095.25;;;16.45;100.00
17525;BME280;40431;52.198;9.902;2023-09-08T04:00:17;101089.13;;;16.42;100.00
17525;BME280;40431;52.198;9.902;2023-09-08T04:02:47;101083.78;;;16.40;100.00
17525;BME280;40431;52.198;9.902;2023-09-08T04:05:13;101078.44;;;16.39;100.00
17525;BME280;40431;52.198;9.902;2023-09-08T04:07:40;101086.63;;;16.39;100.00
17525;BME280;40431;52.198;9.902;2023-09-08T04:10:08;101084.75;;;16.39;100.00
17525;BME280;40431;52.198;9.902;2023-09-08T04:12:34;101074.06;;;16.36;100.00
17525;BME280;40431;52.198;9.902;2023-09-08T04:15:00;101081.50;;;16.34;100.00
17525;BME280;40431;52.198;9.902;2023-09-08T04:17:28;101077.75;;;16.24;100.00
17525;BME280;40431;52.198;9.902;2023-09-08T04:19:55;101083.75;;;16.29;100.00
17525;BME280;40431;52.198;9.902;2023-09-08T04:22:21;101083.84;;;16.27;100.00
17525;BME280;40431;52.198;9.902;2023-09-08T04:24:48;101081.22;;;16.26;100.00
17525;BME280;40431;52.198;9.902;2023-09-08T04:27:15;101078.75;;;16.23;100.00
17525;BME280;40431;52.198;9.902;2023-09-08T04:29:41;101074.75;;;16.15;100.00
17525;BME280;40431;52.198;9.902;2023-09-08T04:32:08;101081.66;;;16.08;100.00
17525;BME280;40431;52.198;9.902;2023-09-08T04:34:38;101083.84;;;16.03;100.00
17525;BME280;40431;52.198;9.902;2023-09-08T04:37:04;101081.00;;;16.05;100.00
17525;BME280;40431;52.198;9.902;2023-09-08T04:39:31;101086.59;;;16.03;100.00
17525;BME280;40431;52.198;9.902;2023-09-08T04:41:58;101078.88;;;15.97;100.00
17525;BME280;40431;52.198;9.902;2023-09-08T04:44:24;101085.19;;;15.97;100.00
17525;BME280;40431;52.198;9.902;2023-09-08T04:46:51;101077.88;;;15.98;100.00
17525;BME280;40431;52.198;9.902;2023-09-08T04:49:18;101079.84;;;15.96;100.00
17525;BME280;40431;52.198;9.902;2023-09-08T04:51:46;101070.66;;;15.97;100.00
17525;BME280;40431;52.198;9.902;2023-09-08T04:54:11;101069.56;;;15.99;100.00
17525;BME280;40431;52.198;9.902;2023-09-08T04:56:38;101075.13;;;15.98;100.00
17525;BME280;40431;52.198;9.902;2023-09-08T04:59:04;101071.41;;;15.99;100.00
17525;BME280;40431;52.198;9.902;2023-09-08T05:01:31;101073.91;;;16.02;100.00
17525;BME280;40431;52.198;9.902;2023-09-08T05:03:58;101074.91;;;16.01;100.00
17525;BME280;40431;52.198;9.902;2023-09-08T05:06:26;101071.66;;;15.96;100.00
17525;BME280;40431;52.198;9.902;2023-09-08T05:08:53;101079.84;;;15.96;100.00
17525;BME280;40431;52.198;9.902;2023-09-08T05:11:20;101081.63;;;15.97;100.00
17525;BME280;40431;52.198;9.902;2023-09-08T05:13:46;101081.50;;;15.98;100.00
17525;BME280;40431;52.198;9.902;2023-09-08T05:16:13;101086.59;;;16.03;100.00
17525;BME280;40431;52.198;9.902;2023-09-08T05:18:40;101083.66;;;16.06;100.00
17525;BME280;40431;52.198;9.902;2023-09-08T05:21:06;101076.44;;;16.05;100.00
17525;BME280;40431;52.198;9.902;2023-09-08T05:23:33;101079.03;;;16.07;100.00
17525;BME280;40431;52.198;9.902;2023-09-08T05:26:01;101079.69;;;16.10;100.00
17525;BME280;40431;52.198;9.902;2023-09-08T05:28:27;101076.84;;;16.12;100.00
17525;BME280;40431;52.198;9.902;2023-09-08T05:30:54;101080.94;;;16.17;100.00
17525;BME280;40431;52.198;9.902;2023-09-08T05:33:20;101082.47;;;16.22;100.00
17525;BME280;40431;52.198;9.902;2023-09-08T05:35:47;101079.72;;;16.22;100.00
17525;BME280;40431;52.198;9.902;2023-09-08T05:38:13;101085.47;;;16.30;100.00
17525;BME280;40431;52.198;9.902;2023-09-08T05:40:39;101088.97;;;16.32;100.00
17525;BME280;40431;52.198;9.902;2023-09-08T05:43:07;101086.13;;;16.33;100.00
17525;BME280;40431;52.198;9.902;2023-09-08T05:45:33;101090.88;;;16.43;100.00
17525;BME280;40431;52.198;9.902;2023-09-08T05:48:01;101091.03;;;16.52;100.00
17525;BME280;40431;52.198;9.902;2023-09-08T05:50:28;101084.09;;;16.60;100.00
17525;BME280;40431;52.198;9.902;2023-09-08T05:52:54;101081.38;;;16.71;100.00
17525;BME280;40431;52.198;9.902;2023-09-08T05:55:21;101085.66;;;16.86;100.00
17525;BME280;40431;52.198;9.902;2023-09-08T05:57:47;101080.47;;;16.95;100.00
17525;BME280;40431;52.198;9.902;2023-09-08T06:00:16;101082.47;;;17.04;100.00
17525;BME280;40431;52.198;9.902;2023-09-08T06:02:42;101084.47;;;17.13;100.00
17525;BME280;40431;52.198;9.902;2023-09-08T06:05:09;101084.72;;;17.22;100.00
17525;BME280;40431;52.198;9.902;2023-09-08T06:07:35;101084.72;;;17.33;100.00
17525;BME280;40431;52.198;9.902;2023-09-08T06:10:02;101087.72;;;17.41;100.00
17525;BME280;40431;52.198;9.902;2023-09-08T06:12:28;101073.25;;;17.50;100.00
17525;BME280;40431;52.198;9.902;2023-09-08T06:14:55;101078.25;;;17.57;100.00
17525;BME280;40431;52.198;9.902;2023-09-08T06:17:22;101085.09;;;17.62;100.00
17525;BME280;40431;52.198;9.902;2023-09-08T06:19:49;101075.25;;;17.71;100.00
17525;BME280;40431;52.198;9.902;2023-09-08T06:22:16;101072.84;;;17.78;100.00
17525;BME280;40431;52.198;9.902;2023-09-08T06:24:42;101070.06;;;17.89;100.00
17525;BME280;40431;52.198;9.902;2023-09-08T06:27:08;101074.53;;;18.01;100.00
17525;BME280;40431;52.198;9.902;2023-09-08T06:29:36;101076.13;;;18.15;100.00
17525;BME280;40431;52.198;9.902;2023-09-08T06:32:05;101081.47;;;18.28;100.00
17525;BME280;40431;52.198;9.902;2023-09-08T06:34:32;101063.06;;;18.40;100.00
17525;BME280;40431;52.198;9.902;2023-09-08T06:37:00;101071.38;;;18.50;100.00
17525;BME280;40431;52.198;9.902;2023-09-08T06:39:27;101081.41;;;18.61;100.00
17525;BME280;40431;52.198;9.902;2023-09-08T06:41:53;101079.75;;;18.69;100.00
17525;BME280;40431;52.198;9.902;2023-09-08T06:44:20;101082.84;;;18.76;100.00
17525;BME280;40431;52.198;9.902;2023-09-08T06:46:47;101086.28;;;18.90;100.00
17525;BME280;40431;52.198;9.902;2023-09-08T06:49:14;101080.22;;;18.96;100.00
17525;BME280;40431;52.198;9.902;2023-09-08T06:51:41;101080.44;;;19.04;100.00
17525;BME280;40431;52.198;9.902;2023-09-08T06:54:08;101079.34;;;19.16;100.00
17525;BME280;40431;52.198;9.902;2023-09-08T06:56:35;101083.88;;;19.27;100.00
17525;BME280;40431;52.198;9.902;2023-09-08T06:59:02;101087.69;;;19.36;100.00
17525;BME280;40431;52.198;9.902;2023-09-08T07:01:28;101081.34;;;19.45;99.95
17525;BME280;40431;52.198;9.902;2023-09-08T07:03:55;101083.28;;;19.55;98.66
17525;BME280;40431;52.198;9.902;2023-09-08T07:06:21;101079.38;;;19.67;99.01
17525;BME280;40431;52.198;9.902;2023-09-08T07:08:49;101083.75;;;19.79;98.25
17525;BME280;40431;52.198;9.902;2023-09-08T07:11:16;101079.34;;;19.88;97.30
17525;BME280;40431;52.198;9.902;2023-09-08T07:13:42;101082.97;;;19.98;95.78
17525;BME280;40431;52.198;9.902;2023-09-08T07:16:09;101080.97;;;20.10;95.92
17525;BME280;40431;52.198;9.902;2023-09-08T07:18:36;101074.31;;;20.23;96.14
17525;BME280;40431;52.198;9.902;2023-09-08T07:21:03;101079.66;;;20.34;95.14
17525;BME280;40431;52.198;9.902;2023-09-08T07:23:30;101073.13;;;20.45;93.62
17525;BME280;40431;52.198;9.902;2023-09-08T07:25:57;101081.25;;;20.56;93.55
17525;BME280;40431;52.198;9.902;2023-09-08T07:28:24;101083.75;;;20.69;91.58
17525;BME280;40431;52.198;9.902;2023-09-08T07:30:50;101069.66;;;20.72;92.94
17525;BME280;40431;52.198;9.902;2023-09-08T07:33:17;101081.13;;;20.77;93.42
17525;BME280;40431;52.198;9.902;2023-09-08T07:35:44;101079.81;;;20.81;93.46
17525;BME280;40431;52.198;9.902;2023-09-08T07:38:11;101077.78;;;20.83;93.17
17525;BME280;40431;52.198;9.902;2023-09-08T07:40:37;101069.22;;;20.87;92.99
17525;BME280;40431;52.198;9.902;2023-09-08T07:43:05;101078.59;;;20.94;91.25
17525;BME280;40431;52.198;9.902;2023-09-08T07:45:31;101068.16;;;20.97;91.10
17525;BME280;40431;52.198;9.902;2023-09-08T07:47:58;101071.19;;;21.04;91.37
17525;BME280;40431;52.198;9.902;2023-09-08T07:50:26;101074.94;;;21.13;92.35
17525;BME280;40431;52.198;9.902;2023-09-08T07:52:54;101063.88;;;21.23;91.77
17525;BME280;40431;52.198;9.902;2023-09-08T07:55:22;101062.97;;;21.32;88.89
17525;BME280;40431;52.198;9.902;2023-09-08T07:57:50;101060.16;;;21.42;88.99
17525;BME280;40431;52.198;9.902;2023-09-08T08:00:18;101056.63;;;21.49;88.12
17525;BME280;40431;52.198;9.902;2023-09-08T08:02:46;101058.97;;;21.54;88.42
17525;BME280;40431;52.198;9.902;2023-09-08T08:05:13;101061.34;;;21.67;88.37
17525;BME280;40431;52.198;9.902;2023-09-08T08:07:39;101054.38;;;21.73;86.84
17525;BME280;40431;52.198;9.902;2023-09-08T08:10:07;101055.03;;;21.84;87.08
17525;BME280;40431;52.198;9.902;2023-09-08T08:12:33;101065.13;;;21.94;87.26
17525;BME280;40431;52.198;9.902;2023-09-08T08:15:00;101051.41;;;22.02;88.02
17525;BME280;40431;52.198;9.902;2023-09-08T08:17:27;101055.66;;;22.14;87.99
17525;BME280;40431;52.198;9.902;2023-09-08T08:19:55;101054.88;;;22.22;86.60
17525;BME280;40431;52.198;9.902;2023-09-08T08:22:23;101053.78;;;22.33;85.13
17525;BME280;40431;52.198;9.902;2023-09-08T08:24:50;101053.56;;;22.44;84.08
17525;BME280;40431;52.198;9.902;2023-09-08T08:27:16;101051.72;;;22.53;84.54
17525;BME280;40431;52.198;9.902;2023-09-08T08:29:42;101054.66;;;22.70;82.08
17525;BME280;40431;52.198;9.902;2023-09-08T08:32:09;101050.56;;;22.82;81.55
17525;BME280;40431;52.198;9.902;2023-09-08T08:34:38;101058.13;;;22.98;83.00
17525;BME280;40431;52.198;9.902;2023-09-08T08:37:05;101056.50;;;23.13;79.29
17525;BME280;40431;52.198;9.902;2023-09-08T08:39:31;101048.97;;;23.32;76.95
17525;BME280;40431;52.198;9.902;2023-09-08T08:41:57;101054.63;;;23.48;74.63
17525;BME280;40431;52.198;9.902;2023-09-08T08:44:24;101055.69;;;23.64;74.93
17525;BME280;40431;52.198;9.902;2023-09-08T08:46:51;101051.59;;;23.76;73.38
17525;BME280;40431;52.198;9.902;2023-09-08T08:49:21;101051.66;;;23.93;72.60
17525;BME280;40431;52.198;9.902;2023-09-08T08:51:50;101047.88;;;24.02;71.26
17525;BME280;40431;52.198;9.902;2023-09-08T08:54:18;101051.38;;;24.12;72.14
17525;BME280;40431;52.198;9.902;2023-09-08T08:56:45;101048.25;;;24.24;70.85
17525;BME280;40431;52.198;9.902;2023-09-08T08:59:13;101046.72;;;24.29;69.52
17525;BME280;40431;52.198;9.902;2023-09-08T09:01:41;101045.16;;;24.43;70.00
17525;BME280;40431;52.198;9.902;2023-09-08T09:04:08;101043.75;;;24.56;69.77
17525;BME280;40431;52.198;9.902;2023-09-08T09:06:35;101037.91;;;24.67;67.82
17525;BME280;40431;52.198;9.902;2023-09-08T09:09:04;101032.16;;;24.77;67.26
17525;BME280;40431;52.198;9.902;2023-09-08T09:11:30;101035.97;;;24.84;67.84
17525;BME280;40431;52.198;9.902;2023-09-08T09:13:57;101037.34;;;24.96;67.31
17525;BME280;40431;52.198;9.902;2023-09-08T09:16:23;101029.88;;;25.05;67.05
17525;BME280;40431;52.198;9.902;2023-09-08T09:18:54;101039.91;;;25.14;66.67
17525;BME280;40431;52.198;9.902;2023-09-08T09:21:21;101042.28;;;25.26;65.96
17525;BME280;40431;52.198;9.902;2023-09-08T09:23:48;101032.53;;;25.30;65.08
17525;BME280;40431;52.198;9.902;2023-09-08T09:26:24;101025.63;;;25.34;66.07
17525;BME280;40431;52.198;9.902;2023-09-08T09:28:50;101029.75;;;25.46;64.77
17525;BME280;40431;52.198;9.902;2023-09-08T09:31:19;101026.75;;;25.56;64.28
17525;BME280;40431;52.198;9.902;2023-09-08T09:34:00;101020.63;;;25.69;65.07
17525;BME280;40431;52.198;9.902;2023-09-08T09:36:28;101027.16;;;25.76;64.48
17525;BME280;40431;52.198;9.902;2023-09-08T09:38:58;101021.41;;;25.86;65.31
17525;BME280;40431;52.198;9.902;2023-09-08T09:41:26;101023.22;;;25.94;66.07
17525;BME280;40431;52.198;9.902;2023-09-08T09:43:54;101016.94;;;26.00;63.37
17525;BME280;40431;52.198;9.902;2023-09-08T09:46:20;101008.09;;;26.05;62.36
17525;BME280;40431;52.198;9.902;2023-09-08T09:48:50;101013.78;;;26.11;62.51
17525;BME280;40431;52.198;9.902;2023-09-08T09:51:19;101010.25;;;26.17;61.87
17525;BME280;40431;52.198;9.902;2023-09-08T09:53:45;101006.94;;;26.22;62.15
17525;BME280;40431;52.198;9.902;2023-09-08T09:56:13;101009.06;;;26.35;62.22
17525;BME280;40431;52.198;9.902;2023-09-08T09:58:42;101001.03;;;26.40;60.53
17525;BME280;40431;52.198;9.902;2023-09-08T10:01:10;101006.34;;;26.50;59.11
17525;BME280;40431;52.198;9.902;2023-09-08T10:03:37;101000.50;;;26.60;59.09
17525;BME280;40431;52.198;9.902;2023-09-08T10:06:05;100992.75;;;26.70;59.15
17525;BME280;40431;52.198;9.902;2023-09-08T10:08:34;101000.38;;;26.76;58.42
17525;BME280;40431;52.198;9.902;2023-09-08T10:11:04;100990.22;;;26.83;57.56
17525;BME280;40431;52.198;9.902;2023-09-08T10:13:32;100993.31;;;26.89;58.49
17525;BME280;40431;52.198;9.902;2023-09-08T10:16:02;100986.94;;;26.95;57.40
17525;BME280;40431;52.198;9.902;2023-09-08T10:18:28;100989.66;;;27.03;57.37
17525;BME280;40431;52.198;9.902;2023-09-08T10:20:57;100990.59;;;27.10;56.50
17525;BME280;40431;52.198;9.902;2023-09-08T10:23:33;100986.88;;;27.18;55.58
17525;BME280;40431;52.198;9.902;2023-09-08T10:26:03;100977.28;;;27.21;55.15
17525;BME280;40431;52.198;9.902;2023-09-08T10:28:32;100981.00;;;27.28;55.76
17525;BME280;40431;52.198;9.902;2023-09-08T10:31:00;100974.28;;;27.37;53.46
17525;BME280;40431;52.198;9.902;2023-09-08T10:33:27;100985.03;;;27.40;54.60
17525;BME280;40431;52.198;9.902;2023-09-08T10:35:55;100981.28;;;27.48;55.04
17525;BME280;40431;52.198;9.902;2023-09-08T10:38:23;100981.34;;;27.55;53.15
17525;BME280;40431;52.198;9.902;2023-09-08T10:40:50;100976.75;;;27.62;51.94
17525;BME280;40431;52.198;9.902;2023-09-08T10:43:18;100976.81;;;27.69;52.38
17525;BME280;40431;52.198;9.902;2023-09-08T10:45:45;100983.53;;;27.74;52.88
17525;BME280;40431;52.198;9.902;2023-09-08T10:48:13;100961.50;;;27.79;52.21
17525;BME280;40431;52.198;9.902;2023-09-08T10:50:41;100972.53;;;27.88;52.02
17525;BME280;40431;52.198;9.902;2023-09-08T10:53:12;100972.94;;;27.85;51.50
17525;BME280;40431;52.198;9.902;2023-09-08T10:55:40;100971.47;;;27.89;51.64
17525;BME280;40431;52.198;9.902;2023-09-08T10:58:09;100961.66;;;27.93;50.56
17525;BME280;40431;52.198;9.902;2023-09-08T11:00:43;100973.72;;;28.00;51.31
17525;BME280;40431;52.198;9.902;2023-09-08T11:03:10;100968.66;;;28.04;51.58
17525;BME280;40431;52.198;9.902;2023-09-08T11:05:37;100965.28;;;28.08;50.16
17525;BME280;40431;52.198;9.902;2023-09-08T11:08:04;100962.09;;;28.11;49.44
17525;BME280;40431;52.198;9.902;2023-09-08T11:10:32;100965.13;;;28.16;49.00
17525;BME280;40431;52.198;9.902;2023-09-08T11:13:01;100966.47;;;28.21;48.94
17525;BME280;40431;52.198;9.902;2023-09-08T11:15:28;100972.28;;;28.26;49.08
17525;BME280;40431;52.198;9.902;2023-09-08T11:17:55;100961.63;;;28.29;48.52
17525;BME280;40431;52.198;9.902;2023-09-08T11:20:26;100962.47;;;28.30;48.55
17525;BME280;40431;52.198;9.902;2023-09-08T11:22:54;100962.06;;;28.33;49.05
17525;BME280;40431;52.198;9.902;2023-09-08T11:25:21;100958.53;;;28.46;48.20
17525;BME280;40431;52.198;9.902;2023-09-08T11:27:48;100960.56;;;28.59;48.11
17525;BME280;40431;52.198;9.902;2023-09-08T11:30:15;100957.63;;;28.67;47.76
17525;BME280;40431;52.198;9.902;2023-09-08T11:32:42;100946.09;;;28.77;47.32
17525;BME280;40431;52.198;9.902;2023-09-08T11:35:10;100957.97;;;28.86;48.29
17525;BME280;40431;52.198;9.902;2023-09-08T11:37:37;100950.09;;;28.96;47.46
17525;BME280;40431;52.198;9.902;2023-09-08T11:40:06;100936.78;;;28.98;47.82
17525;BME280;40431;52.198;9.902;2023-09-08T11:42:38;100944.31;;;28.97;47.34
17525;BME280;40431;52.198;9.902;2023-09-08T11:45:10;100942.19;;;29.06;47.47
17525;BME280;40431;52.198;9.902;2023-09-08T11:47:39;100938.34;;;29.07;47.73
17525;BME280;40431;52.198;9.902;2023-09-08T11:50:07;100936.59;;;29.06;47.56
17525;BME280;40431;52.198;9.902;2023-09-08T11:52:34;100939.16;;;29.01;47.00
17525;BME280;40431;52.198;9.902;2023-09-08T11:55:00;100925.44;;;29.06;48.67
17525;BME280;40431;52.198;9.902;2023-09-08T11:57:29;100928.47;;;29.11;48.40
17525;BME280;40431;52.198;9.902;2023-09-08T11:59:56;100926.59;;;29.19;48.87
17525;BME280;40431;52.198;9.902;2023-09-08T12:02:23;100925.75;;;29.25;46.62
17525;BME280;40431;52.198;9.902;2023-09-08T12:04:53;100931.00;;;29.41;44.83
17525;BME280;40431;52.198;9.902;2023-09-08T12:07:19;100923.75;;;29.54;44.25
17525;BME280;40431;52.198;9.902;2023-09-08T12:09:45;100923.75;;;29.60;42.94
17525;BME280;40431;52.198;9.902;2023-09-08T12:12:12;100917.72;;;29.63;42.94
17525;BME280;40431;52.198;9.902;2023-09-08T12:14:41;100920.53;;;29.70;42.46
17525;BME280;40431;52.198;9.902;2023-09-08T12:17:08;100919.06;;;29.74;43.57
17525;BME280;40431;52.198;9.902;2023-09-08T12:19:35;100925.97;;;29.78;41.32
17525;BME280;40431;52.198;9.902;2023-09-08T12:22:03;100917.13;;;29.81;41.64
17525;BME280;40431;52.198;9.902;2023-09-08T12:24:49;100920.19;;;29.87;43.51
17525;BME280;40431;52.198;9.902;2023-09-08T12:27:16;100919.31;;;29.93;42.75
17525;BME280;40431;52.198;9.902;2023-09-08T12:29:51;100914.81;;;29.92;42.70
17525;BME280;40431;52.198;9.902;2023-09-08T12:32:18;100914.81;;;29.92;42.40
17525;BME280;40431;52.198;9.902;2023-09-08T12:34:45;100909.88;;;29.94;41.21
17525;BME280;40431;52.198;9.902;2023-09-08T12:37:12;100900.63;;;30.00;40.84
17525;BME280;40431;52.198;9.902;2023-09-08T12:39:38;100905.38;;;30.06;42.15
17525;BME280;40431;52.198;9.902;2023-09-08T12:42:05;100904.50;;;29.99;41.24
17525;BME280;40431;52.198;9.902;2023-09-08T12:44:31;100892.03;;;30.02;42.09
17525;BME280;40431;52.198;9.902;2023-09-08T12:46:59;100900.19;;;30.10;42.82